sensor_id;sensor_type;location;lat;lon;timestamp;P1;durP1;ratioP1;P2;durP2;ratioP2
17890;SDS011;9071;48.220;14.480;2023-10-31T00:01:28;5.03;;;3.30;;
17890;SDS011;9071;48.220;14.480;2023-10-31T00:06:30;7.28;;;3.60;;
17890;SDS011;9071;48.220;14.480;2023-10-31T00:11:34;6.28;;;3.05;;
17890;SDS011;9071;48.220;14.480;2023-10-31T00:16:36;6.07;;;3.08;;
17890;SDS011;9071;48.220;14.480;2023-10-31T00:21:38;5.10;;;3.13;;
17890;SDS011;9071;48.220;14.480;2023-10-31T00:26:41;5.93;;;3.90;;
17890;SDS011;9071;48.220;14.480;2023-10-31T00:31:43;7.45;;;4.03;;
17890;SDS011;9071;48.220;14.480;2023-10-31T00:36:45;6.50;;;5.00;;
17890;SDS011;9071;48.220;14.480;2023-10-31T00:41:49;8.38;;;5.63;;
17890;SDS011;9071;48.220;14.480;2023-10-31T00:46:51;7.93;;;5.43;;
17890;SDS011;9071;48.220;14.480;2023-10-31T00:51:53;7.50;;;5.20;;
17890;SDS011;9071;48.220;14.480;2023-10-31T00:56:56;6.63;;;5.50;;
17890;SDS011;9071;48.220;14.480;2023-10-31T01:01:59;6.83;;;5.27;;
17890;SDS011;9071;48.220;14.480;2023-10-31T01:07:01;6.17;;;4.90;;
17890;SDS011;9071;48.220;14.480;2023-10-31T01:12:05;7.43;;;5.17;;
17890;SDS011;9071;48.220;14.480;2023-10-31T01:17:07;7.83;;;5.07;;
17890;SDS011;9071;48.220;14.480;2023-10-31T01:22:09;6.27;;;4.17;;
17890;SDS011;9071;48.220;14.480;2023-10-31T01:27:13;4.87;;;4.17;;
17890;SDS011;9071;48.220;14.480;2023-10-31T01:32:15;5.40;;;3.40;;
17890;SDS011;9071;48.220;14.480;2023-10-31T01:37:18;4.30;;;3.43;;
17890;SDS011;9071;48.220;14.480;2023-10-31T01:42:22;3.90;;;3.50;;
17890;SDS011;9071;48.220;14.480;2023-10-31T01:47:24;6.33;;;4.67;;
17890;SDS011;9071;48.220;14.480;2023-10-31T01:52:26;6.47;;;4.90;;
17890;SDS011;9071;48.220;14.480;2023-10-31T01:57:34;7.80;;;5.67;;
17890;SDS011;9071;48.220;14.480;2023-10-31T02:02:36;7.27;;;5.73;;
17890;SDS011;9071;48.220;14.480;2023-10-31T02:07:42;9.93;;;5.70;;
17890;SDS011;9071;48.220;14.480;2023-10-31T02:12:48;6.17;;;5.53;;
17890;SDS011;9071;48.220;14.480;2023-10-31T02:17:50;8.43;;;6.20;;
17890;SDS011;9071;48.220;14.480;2023-10-31T02:22:53;6.50;;;5.67;;
17890;SDS011;9071;48.220;14.480;2023-10-31T02:27:55;6.50;;;5.53;;
17890;SDS011;9071;48.220;14.480;2023-10-31T02:32:57;5.50;;;4.97;;
17890;SDS011;9071;48.220;14.480;2023-10-31T02:38:01;5.60;;;4.70;;
17890;SDS011;9071;48.220;14.480;2023-10-31T02:43:03;5.83;;;5.20;;
17890;SDS011;9071;48.220;14.480;2023-10-31T02:48:05;6.67;;;5.77;;
17890;SDS011;9071;48.220;14.480;2023-10-31T02:53:09;9.43;;;6.17;;
17890;SDS011;9071;48.220;14.480;2023-10-31T02:58:11;10.30;;;7.40;;
17890;SDS011;9071;48.220;14.480;2023-10-31T03:03:13;7.63;;;5.93;;
17890;SDS011;9071;48.220;14.480;2023-10-31T03:08:17;5.57;;;4.53;;
17890;SDS011;9071;48.220;14.480;2023-10-31T03:13:20;4.43;;;3.70;;
17890;SDS011;9071;48.220;14.480;2023-10-31T03:18:23;3.73;;;3.10;;
17890;SDS011;9071;48.220;14.480;2023-10-31T03:23:26;4.33;;;2.40;;
17890;SDS011;9071;48.220;14.480;2023-10-31T03:28:29;2.50;;;2.20;;
17890;SDS011;9071;48.220;14.480;2023-10-31T03:33:31;3.43;;;2.17;;
17890;SDS011;9071;48.220;14.480;2023-10-31T03:38:34;2.80;;;2.37;;
17890;SDS011;9071;48.220;14.480;2023-10-31T03:43:37;2.40;;;1.90;;
17890;SDS011;9071;48.220;14.480;2023-10-31T03:48:39;1.90;;;1.17;;
17890;SDS011;9071;48.220;14.480;2023-10-31T03:53:42;1.40;;;1.17;;
17890;SDS011;9071;48.220;14.480;2023-10-31T03:58:44;1.00;;;0.90;;
17890;SDS011;9071;48.220;14.480;2023-10-31T04:03:46;1.10;;;1.00;;
17890;SDS011;9071;48.220;14.480;2023-10-31T04:08:50;1.87;;;0.90;;
17890;SDS011;9071;48.220;14.480;2023-10-31T04:13:52;0.80;;;0.80;;
17890;SDS011;9071;48.220;14.480;2023-10-31T04:18:54;1.00;;;0.90;;
17890;SDS011;9071;48.220;14.480;2023-10-31T04:23:57;1.80;;;1.00;;
17890;SDS011;9071;48.220;14.480;2023-10-31T04:28:59;1.70;;;0.90;;
17890;SDS011;9071;48.220;14.480;2023-10-31T04:34:01;2.03;;;0.90;;
17890;SDS011;9071;48.220;14.480;2023-10-31T04:39:05;0.50;;;0.50;;
17890;SDS011;9071;48.220;14.480;2023-10-31T04:44:07;0.30;;;0.30;;
17890;SDS011;9071;48.220;14.480;2023-10-31T04:49:09;0.40;;;0.40;;
17890;SDS011;9071;48.220;14.480;2023-10-31T04:54:13;0.40;;;0.40;;
17890;SDS011;9071;48.220;14.480;2023-10-31T04:59:15;0.77;;;0.40;;
17890;SDS011;9071;48.220;14.480;2023-10-31T05:04:17;0.40;;;0.40;;
17890;SDS011;9071;48.220;14.480;2023-10-31T05:09:20;1.20;;;0.90;;
17890;SDS011;9071;48.220;14.480;2023-10-31T05:14:23;1.37;;;1.17;;
17890;SDS011;9071;48.220;14.480;2023-10-31T05:19:25;2.30;;;0.97;;
17890;SDS011;9071;48.220;14.480;2023-10-31T05:24:28;1.20;;;1.00;;
17890;SDS011;9071;48.220;14.480;2023-10-31T05:29:32;1.07;;;0.90;;
17890;SDS011;9071;48.220;14.480;2023-10-31T05:34:34;0.80;;;0.80;;
17890;SDS011;9071;48.220;14.480;2023-10-31T05:39:38;1.07;;;0.67;;
17890;SDS011;9071;48.220;14.480;2023-10-31T05:44:40;1.00;;;0.87;;
17890;SDS011;9071;48.220;14.480;2023-10-31T05:49:42;1.70;;;1.00;;
17890;SDS011;9071;48.220;14.480;2023-10-31T05:54:46;1.77;;;1.17;;
17890;SDS011;9071;48.220;14.480;2023-10-31T05:59:48;1.37;;;1.17;;
17890;SDS011;9071;48.220;14.480;2023-10-31T06:04:50;2.27;;;1.30;;
17890;SDS011;9071;48.220;14.480;2023-10-31T06:09:53;1.90;;;1.10;;
17890;SDS011;9071;48.220;14.480;2023-10-31T06:14:55;1.30;;;1.10;;
17890;SDS011;9071;48.220;14.480;2023-10-31T06:19:57;2.03;;;1.30;;
17890;SDS011;9071;48.220;14.480;2023-10-31T06:25:01;2.13;;;1.20;;
17890;SDS011;9071;48.220;14.480;2023-10-31T06:30:04;1.13;;;0.80;;
17890;SDS011;9071;48.220;14.480;2023-10-31T06:35:07;1.63;;;1.13;;
17890;SDS011;9071;48.220;14.480;2023-10-31T06:40:11;2.47;;;1.40;;
17890;SDS011;9071;48.220;14.480;2023-10-31T06:45:13;2.00;;;1.10;;
17890;SDS011;9071;48.220;14.480;2023-10-31T06:50:15;5.33;;;1.20;;
17890;SDS011;9071;48.220;14.480;2023-10-31T06:55:25;1.53;;;1.20;;
17890;SDS011;9071;48.220;14.480;2023-10-31T07:00:28;3.77;;;1.40;;
17890;SDS011;9071;48.220;14.480;2023-10-31T07:05:30;2.63;;;1.10;;
17890;SDS011;9071;48.220;14.480;2023-10-31T07:10:33;2.10;;;1.47;;
17890;SDS011;9071;48.220;14.480;2023-10-31T07:15:35;2.53;;;0.97;;
17890;SDS011;9071;48.220;14.480;2023-10-31T07:20:39;3.23;;;1.00;;
17890;SDS011;9071;48.220;14.480;2023-10-31T07:25:42;1.97;;;0.80;;
17890;SDS011;9071;48.220;14.480;2023-10-31T07:30:45;3.70;;;0.90;;
17890;SDS011;9071;48.220;14.480;2023-10-31T07:35:47;2.53;;;0.87;;
17890;SDS011;9071;48.220;14.480;2023-10-31T07:40:50;1.60;;;1.10;;
17890;SDS011;9071;48.220;14.480;2023-10-31T07:45:53;1.20;;;0.90;;
17890;SDS011;9071;48.220;14.480;2023-10-31T07:50:55;1.40;;;0.60;;
17890;SDS011;9071;48.220;14.480;2023-10-31T07:55:58;0.60;;;0.60;;
17890;SDS011;9071;48.220;14.480;2023-10-31T08:01:00;1.37;;;1.00;;
17890;SDS011;9071;48.220;14.480;2023-10-31T08:06:03;1.57;;;1.07;;
17890;SDS011;9071;48.220;14.480;2023-10-31T08:11:08;1.67;;;1.27;;
17890;SDS011;9071;48.220;14.480;2023-10-31T08:16:16;1.77;;;1.10;;
17890;SDS011;9071;48.220;14.480;2023-10-31T08:21:18;1.43;;;1.10;;
17890;SDS011;9071;48.220;14.480;2023-10-31T08:26:22;2.33;;;1.10;;
17890;SDS011;9071;48.220;14.480;2023-10-31T08:31:24;1.30;;;0.93;;
17890;SDS011;9071;48.220;14.480;2023-10-31T08:36:26;1.33;;;1.10;;
17890;SDS011;9071;48.220;14.480;2023-10-31T08:41:30;1.30;;;1.20;;
17890;SDS011;9071;48.220;14.480;2023-10-31T08:46:32;1.87;;;1.10;;
17890;SDS011;9071;48.220;14.480;2023-10-31T08:51:34;1.70;;;0.93;;
17890;SDS011;9071;48.220;14.480;2023-10-31T08:56:38;0.70;;;0.60;;
17890;SDS011;9071;48.220;14.480;2023-10-31T09:01:40;2.40;;;0.90;;
17890;SDS011;9071;48.220;14.480;2023-10-31T09:06:42;1.20;;;0.70;;
17890;SDS011;9071;48.220;14.480;2023-10-31T09:11:46;2.53;;;1.00;;
17890;SDS011;9071;48.220;14.480;2023-10-31T09:16:48;0.80;;;0.80;;
17890;SDS011;9071;48.220;14.480;2023-10-31T09:21:50;2.17;;;1.10;;
17890;SDS011;9071;48.220;14.480;2023-10-31T09:26:53;2.70;;;1.00;;
17890;SDS011;9071;48.220;14.480;2023-10-31T09:31:55;2.53;;;1.20;;
17890;SDS011;9071;48.220;14.480;2023-10-31T09:36:57;1.77;;;1.20;;
17890;SDS011;9071;48.220;14.480;2023-10-31T09:42:01;1.50;;;0.93;;
17890;SDS011;9071;48.220;14.480;2023-10-31T09:47:03;2.70;;;1.20;;
17890;SDS011;9071;48.220;14.480;2023-10-31T09:52:07;3.80;;;1.80;;
17890;SDS011;9071;48.220;14.480;2023-10-31T09:57:12;2.70;;;1.37;;
17890;SDS011;9071;48.220;14.480;2023-10-31T10:02:17;1.17;;;0.90;;
17890;SDS011;9071;48.220;14.480;2023-10-31T10:07:19;2.43;;;1.60;;
17890;SDS011;9071;48.220;14.480;2023-10-31T10:12:22;1.77;;;1.30;;
17890;SDS011;9071;48.220;14.480;2023-10-31T10:17:25;2.53;;;1.20;;
17890;SDS011;9071;48.220;14.480;2023-10-31T10:22:28;3.60;;;1.30;;
17890;SDS011;9071;48.220;14.480;2023-10-31T10:27:31;2.10;;;1.03;;
17890;SDS011;9071;48.220;14.480;2023-10-31T10:32:33;2.30;;;1.20;;
17890;SDS011;9071;48.220;14.480;2023-10-31T10:37:36;2.50;;;1.37;;
17890;SDS011;9071;48.220;14.480;2023-10-31T10:42:42;2.37;;;1.43;;
17890;SDS011;9071;48.220;14.480;2023-10-31T10:47:47;2.77;;;1.63;;
17890;SDS011;9071;48.220;14.480;2023-10-31T10:52:53;2.70;;;1.30;;
17890;SDS011;9071;48.220;14.480;2023-10-31T10:58:05;3.97;;;1.27;;
17890;SDS011;9071;48.220;14.480;2023-10-31T11:03:09;2.17;;;1.20;;
17890;SDS011;9071;48.220;14.480;2023-10-31T11:08:12;1.30;;;0.90;;
17890;SDS011;9071;48.220;14.480;2023-10-31T11:13:16;2.93;;;0.93;;
17890;SDS011;9071;48.220;14.480;2023-10-31T11:18:18;1.20;;;1.00;;
17890;SDS011;9071;48.220;14.480;2023-10-31T11:23:21;1.50;;;1.10;;
17890;SDS011;9071;48.220;14.480;2023-10-31T11:28:24;1.40;;;1.30;;
17890;SDS011;9071;48.220;14.480;2023-10-31T11:33:27;1.73;;;1.10;;
17890;SDS011;9071;48.220;14.480;2023-10-31T11:38:31;2.30;;;1.17;;
17890;SDS011;9071;48.220;14.480;2023-10-31T11:43:54;1.90;;;1.40;;
17890;SDS011;9071;48.220;14.480;2023-10-31T11:48:57;2.70;;;1.60;;
17890;SDS011;9071;48.220;14.480;2023-10-31T11:54:00;3.27;;;1.50;;
17890;SDS011;9071;48.220;14.480;2023-10-31T11:59:05;2.77;;;1.50;;
17890;SDS011;9071;48.220;14.480;2023-10-31T12:04:08;1.87;;;1.33;;
17890;SDS011;9071;48.220;14.480;2023-10-31T12:09:10;3.47;;;1.67;;
17890;SDS011;9071;48.220;14.480;2023-10-31T12:14:17;1.60;;;1.33;;
17890;SDS011;9071;48.220;14.480;2023-10-31T12:19:20;2.50;;;1.40;;
17890;SDS011;9071;48.220;14.480;2023-10-31T12:24:22;3.33;;;1.40;;
17890;SDS011;9071;48.220;14.480;2023-10-31T12:29:26;3.47;;;1.63;;
17890;SDS011;9071;48.220;14.480;2023-10-31T12:34:28;1.40;;;1.27;;
17890;SDS011;9071;48.220;14.480;2023-10-31T12:39:30;3.80;;;1.33;;
17890;SDS011;9071;48.220;14.480;2023-10-31T12:44:34;2.13;;;1.20;;
17890;SDS011;9071;48.220;14.480;2023-10-31T12:49:37;1.47;;;1.17;;
17890;SDS011;9071;48.220;14.480;2023-10-31T12:54:39;1.13;;;0.83;;
17890;SDS011;9071;48.220;14.480;2023-10-31T12:59:42;1.70;;;1.00;;
17890;SDS011;9071;48.220;14.480;2023-10-31T13:04:44;2.87;;;1.30;;
17890;SDS011;9071;48.220;14.480;2023-10-31T13:09:46;0.93;;;0.70;;
17890;SDS011;9071;48.220;14.480;2023-10-31T13:14:52;0.97;;;0.70;;
17890;SDS011;9071;48.220;14.480;2023-10-31T13:19:54;3.07;;;0.90;;
17890;SDS011;9071;48.220;14.480;2023-10-31T13:24:56;0.80;;;0.80;;
17890;SDS011;9071;48.220;14.480;2023-10-31T13:30:00;2.00;;;1.00;;
17890;SDS011;9071;48.220;14.480;2023-10-31T13:35:02;1.20;;;0.70;;
17890;SDS011;9071;48.220;14.480;2023-10-31T13:40:05;1.40;;;0.90;;
17890;SDS011;9071;48.220;14.480;2023-10-31T13:45:10;1.73;;;0.90;;
17890;SDS011;9071;48.220;14.480;2023-10-31T13:50:12;1.87;;;1.00;;
17890;SDS011;9071;48.220;14.480;2023-10-31T13:55:15;2.20;;;0.80;;
17890;SDS011;9071;48.220;14.480;2023-10-31T14:00:19;1.37;;;1.13;;
17890;SDS011;9071;48.220;14.480;2023-10-31T14:05:21;3.40;;;1.20;;
17890;SDS011;9071;48.220;14.480;2023-10-31T14:10:23;5.20;;;1.27;;
17890;SDS011;9071;48.220;14.480;2023-10-31T14:15:27;2.53;;;1.10;;
17890;SDS011;9071;48.220;14.480;2023-10-31T14:20:29;2.33;;;1.03;;
17890;SDS011;9071;48.220;14.480;2023-10-31T14:25:31;1.90;;;1.20;;
17890;SDS011;9071;48.220;14.480;2023-10-31T14:30:34;2.20;;;1.10;;
17890;SDS011;9071;48.220;14.480;2023-10-31T14:35:36;3.20;;;1.10;;
17890;SDS011;9071;48.220;14.480;2023-10-31T14:40:38;5.77;;;1.20;;
17890;SDS011;9071;48.220;14.480;2023-10-31T14:45:42;2.33;;;1.30;;
17890;SDS011;9071;48.220;14.480;2023-10-31T14:50:44;1.60;;;1.10;;
17890;SDS011;9071;48.220;14.480;2023-10-31T14:55:46;2.67;;;1.37;;
17890;SDS011;9071;48.220;14.480;2023-10-31T15:00:50;2.77;;;1.20;;
17890;SDS011;9071;48.220;14.480;2023-10-31T15:05:52;2.93;;;1.40;;
17890;SDS011;9071;48.220;14.480;2023-10-31T15:10:54;1.40;;;0.90;;
17890;SDS011;9071;48.220;14.480;2023-10-31T15:15:58;2.33;;;1.53;;
17890;SDS011;9071;48.220;14.480;2023-10-31T15:21:00;3.93;;;1.90;;
17890;SDS011;9071;48.220;14.480;2023-10-31T15:26:02;1.40;;;1.30;;
17890;SDS011;9071;48.220;14.480;2023-10-31T15:31:06;3.33;;;1.40;;
17890;SDS011;9071;48.220;14.480;2023-10-31T15:36:09;2.53;;;1.40;;
17890;SDS011;9071;48.220;14.480;2023-10-31T15:41:12;4.03;;;1.80;;
17890;SDS011;9071;48.220;14.480;2023-10-31T15:46:16;6.23;;;3.17;;
17890;SDS011;9071;48.220;14.480;2023-10-31T15:51:18;3.80;;;2.40;;
17890;SDS011;9071;48.220;14.480;2023-10-31T15:56:20;2.40;;;1.63;;
17890;SDS011;9071;48.220;14.480;2023-10-31T16:01:23;4.03;;;1.70;;
17890;SDS011;9071;48.220;14.480;2023-10-31T16:06:25;4.00;;;2.10;;
17890;SDS011;9071;48.220;14.480;2023-10-31T16:11:28;2.57;;;1.93;;
17890;SDS011;9071;48.220;14.480;2023-10-31T16:16:33;2.30;;;1.90;;
17890;SDS011;9071;48.220;14.480;2023-10-31T16:21:35;7.23;;;1.70;;
17890;SDS011;9071;48.220;14.480;2023-10-31T16:26:37;4.00;;;1.80;;
17890;SDS011;9071;48.220;14.480;2023-10-31T16:31:41;3.20;;;1.90;;
17890;SDS011;9071;48.220;14.480;2023-10-31T16:36:44;3.53;;;2.20;;
17890;SDS011;9071;48.220;14.480;2023-10-31T16:41:46;3.53;;;1.90;;
17890;SDS011;9071;48.220;14.480;2023-10-31T16:46:49;7.03;;;4.27;;
17890;SDS011;9071;48.220;14.480;2023-10-31T16:51:51;13.00;;;7.50;;
17890;SDS011;9071;48.220;14.480;2023-10-31T16:56:54;10.40;;;6.33;;
17890;SDS011;9071;48.220;14.480;2023-10-31T17:01:58;5.33;;;3.67;;
17890;SDS011;9071;48.220;14.480;2023-10-31T17:07:00;3.10;;;2.47;;
17890;SDS011;9071;48.220;14.480;2023-10-31T17:12:03;5.53;;;2.53;;
17890;SDS011;9071;48.220;14.480;2023-10-31T17:17:06;4.33;;;2.40;;
17890;SDS011;9071;48.220;14.480;2023-10-31T17:22:08;5.93;;;2.80;;
17890;SDS011;9071;48.220;14.480;2023-10-31T17:27:11;3.53;;;2.43;;
17890;SDS011;9071;48.220;14.480;2023-10-31T17:32:14;8.23;;;4.60;;
17890;SDS011;9071;48.220;14.480;2023-10-31T17:37:16;6.97;;;5.10;;
17890;SDS011;9071;48.220;14.480;2023-10-31T17:42:18;6.47;;;4.40;;
17890;SDS011;9071;48.220;14.480;2023-10-31T17:47:21;10.43;;;5.03;;
17890;SDS011;9071;48.220;14.480;2023-10-31T17:52:23;8.23;;;4.97;;
17890;SDS011;9071;48.220;14.480;2023-10-31T17:57:26;7.10;;;4.50;;
17890;SDS011;9071;48.220;14.480;2023-10-31T18:02:29;7.20;;;4.17;;
17890;SDS011;9071;48.220;14.480;2023-10-31T18:07:31;5.17;;;3.53;;
17890;SDS011;9071;48.220;14.480;2023-10-31T18:12:33;6.00;;;4.07;;
17890;SDS011;9071;48.220;14.480;2023-10-31T18:17:36;7.57;;;4.37;;
17890;SDS011;9071;48.220;14.480;2023-10-31T18:22:38;11.03;;;6.47;;
17890;SDS011;9071;48.220;14.480;2023-10-31T18:27:42;15.93;;;9.00;;
17890;SDS011;9071;48.220;14.480;2023-10-31T18:32:45;12.37;;;8.37;;
17890;SDS011;9071;48.220;14.480;2023-10-31T18:37:47;12.13;;;6.60;;
17890;SDS011;9071;48.220;14.480;2023-10-31T18:42:50;14.43;;;7.50;;
17890;SDS011;9071;48.220;14.480;2023-10-31T18:47:54;15.33;;;7.20;;
17890;SDS011;9071;48.220;14.480;2023-10-31T18:52:56;11.73;;;6.40;;
17890;SDS011;9071;48.220;14.480;2023-10-31T18:57:58;9.67;;;6.07;;
17890;SDS011;9071;48.220;14.480;2023-10-31T19:03:01;7.57;;;4.27;;
17890;SDS011;9071;48.220;14.480;2023-10-31T19:08:04;6.80;;;4.20;;
17890;SDS011;9071;48.220;14.480;2023-10-31T19:13:06;6.90;;;4.10;;
17890;SDS011;9071;48.220;14.480;2023-10-31T19:18:09;6.57;;;3.60;;
17890;SDS011;9071;48.220;14.480;2023-10-31T19:23:11;9.30;;;4.50;;
17890;SDS011;9071;48.220;14.480;2023-10-31T19:28:14;10.07;;;5.60;;
17890;SDS011;9071;48.220;14.480;2023-10-31T19:33:18;7.73;;;5.83;;
17890;SDS011;9071;48.220;14.480;2023-10-31T19:38:20;9.07;;;4.47;;
17890;SDS011;9071;48.220;14.480;2023-10-31T19:43:22;5.33;;;3.73;;
17890;SDS011;9071;48.220;14.480;2023-10-31T19:48:26;6.70;;;4.50;;
17890;SDS011;9071;48.220;14.480;2023-10-31T19:53:28;6.43;;;4.57;;
17890;SDS011;9071;48.220;14.480;2023-10-31T19:58:30;9.10;;;5.07;;
17890;SDS011;9071;48.220;14.480;2023-10-31T20:03:34;5.17;;;3.37;;
17890;SDS011;9071;48.220;14.480;2023-10-31T20:08:36;5.40;;;3.70;;
17890;SDS011;9071;48.220;14.480;2023-10-31T20:13:38;7.23;;;3.80;;
17890;SDS011;9071;48.220;14.480;2023-10-31T20:18:43;5.33;;;3.17;;
17890;SDS011;9071;48.220;14.480;2023-10-31T20:23:45;6.37;;;3.30;;
17890;SDS011;9071;48.220;14.480;2023-10-31T20:28:47;5.17;;;3.10;;
17890;SDS011;9071;48.220;14.480;2023-10-31T20:33:50;6.60;;;3.70;;
17890;SDS011;9071;48.220;14.480;2023-10-31T20:38:54;3.40;;;1.80;;
17890;SDS011;9071;48.220;14.480;2023-10-31T20:43:57;2.63;;;1.60;;
17890;SDS011;9071;48.220;14.480;2023-10-31T20:49:02;2.80;;;2.07;;
17890;SDS011;9071;48.220;14.480;2023-10-31T20:54:06;6.30;;;1.70;;
17890;SDS011;9071;48.220;14.480;2023-10-31T20:59:08;4.73;;;1.97;;
17890;SDS011;9071;48.220;14.480;2023-10-31T21:04:12;7.90;;;2.80;;
17890;SDS011;9071;48.220;14.480;2023-10-31T21:09:14;4.57;;;1.60;;
17890;SDS011;9071;48.220;14.480;2023-10-31T21:14:16;1.70;;;1.33;;
17890;SDS011;9071;48.220;14.480;2023-10-31T21:19:20;4.13;;;2.13;;
17890;SDS011;9071;48.220;14.480;2023-10-31T21:24:22;14.80;;;5.60;;
17890;SDS011;9071;48.220;14.480;2023-10-31T21:29:24;8.77;;;3.90;;
17890;SDS011;9071;48.220;14.480;2023-10-31T21:34:27;3.07;;;2.00;;
17890;SDS011;9071;48.220;14.480;2023-10-31T21:39:29;8.30;;;4.57;;
17890;SDS011;9071;48.220;14.480;2023-10-31T21:44:31;2.90;;;2.10;;
17890;SDS011;9071;48.220;14.480;2023-10-31T21:49:35;5.77;;;2.20;;
17890;SDS011;9071;48.220;14.480;2023-10-31T21:54:37;7.53;;;2.87;;
17890;SDS011;9071;48.220;14.480;2023-10-31T21:59:40;4.13;;;1.70;;
17890;SDS011;9071;48.220;14.480;2023-10-31T22:04:43;2.90;;;1.03;;
17890;SDS011;9071;48.220;14.480;2023-10-31T22:09:45;1.70;;;1.27;;
17890;SDS011;9071;48.220;14.480;2023-10-31T22:14:47;4.20;;;1.30;;
17890;SDS011;9071;48.220;14.480;2023-10-31T22:19:51;1.63;;;1.30;;
17890;SDS011;9071;48.220;14.480;2023-10-31T22:24:54;3.10;;;1.33;;
17890;SDS011;9071;48.220;14.480;2023-10-31T22:29:56;1.70;;;1.27;;
17890;SDS011;9071;48.220;14.480;2023-10-31T22:35:00;3.97;;;1.47;;
17890;SDS011;9071;48.220;14.480;2023-10-31T22:40:02;5.60;;;2.00;;
17890;SDS011;9071;48.220;14.480;2023-10-31T22:45:05;2.97;;;1.20;;
17890;SDS011;9071;48.220;14.480;2023-10-31T22:50:10;1.73;;;1.20;;
17890;SDS011;9071;48.220;14.480;2023-10-31T22:55:12;1.70;;;1.20;;
17890;SDS011;9071;48.220;14.480;2023-10-31T23:00:15;1.23;;;1.00;;
17890;SDS011;9071;48.220;14.480;2023-10-31T23:05:22;1.10;;;1.00;;
17890;SDS011;9071;48.220;14.480;2023-10-31T23:10:25;1.30;;;1.00;;
17890;SDS011;9071;48.220;14.480;2023-10-31T23:15:27;5.07;;;2.33;;
17890;SDS011;9071;48.220;14.480;2023-10-31T23:20:31;1.17;;;1.00;;
17890;SDS011;9071;48.220;14.480;2023-10-31T23:25:33;3.73;;;1.73;;
17890;SDS011;9071;48.220;14.480;2023-10-31T23:30:37;1.30;;;1.13;;
17890;SDS011;9071;48.220;14.480;2023-10-31T23:35:40;2.13;;;1.00;;
17890;SDS011;9071;48.220;14.480;2023-10-31T23:40:42;0.80;;;0.80;;
17890;SDS011;9071;48.220;14.480;2023-10-31T23:45:46;2.03;;;1.00;;
17890;SDS011;9071;48.220;14.480;2023-10-31T23:50:49;1.30;;;1.03;;
17890;SDS011;9071;48.220;14.480;2023-10-31T23:55:51;2.03;;;0.90;;
